createdAt,value
2019-03-29T00:01:40.096Z,8.17
2019-03-29T00:04:08.513Z,10.03
2019-03-29T00:06:37.311Z,10.30
2019-03-29T00:09:07.102Z,9.27
2019-03-29T00:11:35.864Z,11.03
2019-03-29T00:14:04.318Z,9.27
2019-03-29T00:16:32.746Z,8.40
2019-03-29T00:19:01.345Z,9.17
2019-03-29T00:21:30.420Z,9.37
2019-03-29T00:24:06.735Z,7.73
2019-03-29T00:26:28.961Z,6.43
2019-03-29T00:28:57.327Z,10.60
2019-03-29T00:31:25.653Z,10.13
2019-03-29T00:33:54.048Z,7.10
2019-03-29T00:36:22.439Z,6.67
2019-03-29T00:38:50.806Z,8.50
2019-03-29T00:41:19.198Z,12.57
2019-03-29T00:43:47.587Z,11.40
2019-03-29T00:46:15.992Z,8.30
2019-03-29T00:48:44.335Z,10.40
2019-03-29T00:51:12.681Z,10.63
2019-03-29T00:53:41.091Z,11.57
2019-03-29T00:56:09.460Z,11.87
2019-03-29T00:58:37.814Z,8.23
2019-03-29T01:01:06.237Z,11.87
2019-03-29T01:03:34.564Z,9.10
2019-03-29T01:06:03.028Z,6.70
2019-03-29T01:08:31.442Z,9.27
2019-03-29T01:10:59.763Z,9.80
2019-03-29T01:13:28.163Z,9.40
2019-03-29T01:15:56.501Z,8.53
2019-03-29T01:18:24.871Z,8.50
2019-03-29T01:20:53.255Z,7.27
2019-03-29T01:23:21.576Z,11.50
2019-03-29T01:25:51.030Z,7.00
2019-03-29T01:28:19.435Z,11.53
2019-03-29T01:30:48.260Z,7.10
2019-03-29T01:33:17.333Z,10.27
2019-03-29T01:35:45.731Z,8.07
2019-03-29T01:38:21.672Z,10.77
2019-03-29T01:40:44.306Z,9.00
2019-03-29T01:43:12.699Z,11.33
2019-03-29T01:45:41.077Z,9.53
2019-03-29T01:48:09.657Z,10.33
2019-03-29T01:50:38.011Z,10.90
2019-03-29T01:53:06.352Z,12.50
2019-03-29T01:55:34.753Z,9.00
2019-03-29T01:58:03.100Z,12.53
2019-03-29T02:00:32.929Z,11.27
2019-03-29T02:03:01.618Z,13.77
2019-03-29T02:05:30.091Z,12.53
2019-03-29T02:07:58.451Z,14.80
2019-03-29T02:10:26.848Z,11.10
2019-03-29T02:12:55.175Z,10.50
2019-03-29T02:15:23.613Z,7.53
2019-03-29T02:17:52.053Z,9.93
2019-03-29T02:20:20.400Z,12.10
2019-03-29T02:22:48.724Z,11.47
2019-03-29T02:25:17.102Z,9.47
2019-03-29T02:27:45.470Z,9.93
2019-03-29T02:30:14.205Z,10.17
2019-03-29T02:32:42.562Z,12.40
2019-03-29T02:35:11.623Z,9.17
2019-03-29T02:37:40.303Z,8.27
2019-03-29T02:40:08.870Z,12.13
2019-03-29T02:42:37.235Z,9.47
2019-03-29T02:45:06.243Z,9.20
2019-03-29T02:47:34.580Z,11.60
2019-03-29T02:50:03.032Z,11.13
2019-03-29T02:52:31.450Z,12.07
2019-03-29T02:54:59.801Z,8.83
2019-03-29T02:57:28.156Z,9.37
2019-03-29T02:59:56.557Z,10.27
2019-03-29T03:02:26.599Z,11.70
2019-03-29T03:04:55.047Z,14.20
2019-03-29T03:07:23.449Z,9.63
2019-03-29T03:09:51.812Z,12.43
2019-03-29T03:12:20.159Z,11.10
2019-03-29T03:14:48.580Z,11.07
2019-03-29T03:17:19.254Z,11.47
2019-03-29T03:19:47.579Z,13.57
2019-03-29T03:22:16.093Z,10.77
2019-03-29T03:24:44.446Z,10.87
2019-03-29T03:27:12.760Z,15.03
2019-03-29T03:29:41.113Z,12.53
2019-03-29T03:32:09.441Z,12.93
2019-03-29T03:34:37.870Z,14.23
2019-03-29T03:37:06.206Z,15.50
2019-03-29T03:39:34.550Z,12.07
2019-03-29T03:42:02.962Z,12.57
2019-03-29T03:44:31.287Z,10.83
2019-03-29T03:47:02.606Z,11.10
2019-03-29T03:49:31.086Z,10.93
2019-03-29T03:51:59.548Z,9.97
2019-03-29T03:54:27.861Z,12.73
2019-03-29T03:56:57.058Z,14.17
2019-03-29T03:59:27.952Z,10.67
2019-03-29T04:01:56.579Z,11.03
2019-03-29T04:04:24.952Z,10.20
2019-03-29T04:06:53.295Z,12.53
2019-03-29T04:09:21.700Z,10.60
2019-03-29T04:11:50.042Z,12.73
2019-03-29T04:14:18.723Z,10.47
2019-03-29T04:16:47.041Z,12.57
2019-03-29T04:19:15.432Z,13.73
2019-03-29T04:21:43.864Z,12.50
2019-03-29T04:24:12.199Z,17.30
2019-03-29T04:26:40.518Z,11.90
2019-03-29T04:29:08.908Z,18.77
2019-03-29T04:31:37.238Z,14.23
2019-03-29T04:34:05.963Z,14.17
2019-03-29T04:36:34.663Z,12.47
2019-03-29T04:39:05.044Z,15.50
2019-03-29T04:41:33.375Z,15.63
2019-03-29T04:44:01.726Z,11.77
2019-03-29T04:46:30.086Z,11.03
2019-03-29T04:48:58.483Z,12.83
2019-03-29T04:51:26.811Z,15.47
2019-03-29T04:53:55.161Z,10.47
2019-03-29T04:56:23.541Z,13.00
2019-03-29T04:58:51.864Z,12.57
2019-03-29T05:01:20.208Z,12.13
2019-03-29T05:03:48.644Z,13.87
2019-03-29T05:06:17.020Z,11.73
2019-03-29T05:08:45.366Z,9.77
2019-03-29T05:11:13.725Z,11.57
2019-03-29T05:13:42.058Z,10.73
2019-03-29T05:16:10.463Z,15.93
2019-03-29T05:18:38.815Z,11.17
2019-03-29T05:21:07.171Z,9.67
2019-03-29T05:23:35.555Z,12.60
2019-03-29T05:26:03.904Z,13.47
2019-03-29T05:28:32.253Z,17.43
2019-03-29T05:31:00.634Z,10.77
2019-03-29T05:33:29.019Z,22.00
2019-03-29T05:35:57.400Z,11.47
2019-03-29T05:38:25.826Z,14.67
2019-03-29T05:40:54.189Z,10.07
2019-03-29T05:43:22.525Z,14.37
2019-03-29T05:45:50.948Z,11.23
2019-03-29T05:48:19.323Z,12.23
2019-03-29T05:50:47.657Z,10.43
2019-03-29T05:53:16.061Z,20.67
2019-03-29T05:55:44.386Z,12.20
2019-03-29T05:58:12.798Z,13.77
2019-03-29T06:00:41.223Z,14.47
2019-03-29T06:03:11.350Z,13.03
2019-03-29T06:05:39.761Z,17.03
2019-03-29T06:08:08.097Z,9.83
2019-03-29T06:10:48.171Z,12.77
2019-03-29T06:13:07.014Z,10.90
2019-03-29T06:15:35.387Z,14.97
2019-03-29T06:18:03.902Z,11.77
2019-03-29T06:20:32.371Z,13.10
2019-03-29T06:23:00.713Z,11.47
2019-03-29T06:25:29.079Z,14.60
2019-03-29T06:27:57.442Z,8.53
2019-03-29T06:30:29.754Z,14.13
2019-03-29T06:32:58.227Z,10.77
2019-03-29T06:35:28.907Z,12.87
2019-03-29T06:37:57.546Z,9.50
2019-03-29T06:40:27.502Z,11.33
2019-03-29T06:42:55.903Z,21.70
2019-03-29T06:45:24.250Z,9.53
2019-03-29T06:47:52.637Z,12.80
2019-03-29T06:50:21.028Z,13.07
2019-03-29T06:52:49.374Z,10.63
2019-03-29T06:55:17.763Z,12.57
2019-03-29T06:57:46.090Z,10.90
2019-03-29T07:00:14.566Z,11.50
2019-03-29T07:02:42.967Z,15.50
2019-03-29T07:05:11.334Z,8.57
2019-03-29T07:07:40.621Z,5.87
2019-03-29T07:10:09.281Z,8.63
2019-03-29T07:12:37.635Z,10.43
2019-03-29T07:15:06.089Z,11.93
2019-03-29T07:17:34.522Z,13.17
2019-03-29T07:20:03.226Z,10.47
2019-03-29T07:22:34.504Z,11.07
2019-03-29T07:25:01.856Z,9.87
2019-03-29T07:27:38.743Z,12.67
2019-03-29T07:30:00.497Z,11.30
2019-03-29T07:32:29.186Z,11.03
2019-03-29T07:34:57.545Z,11.53
2019-03-29T07:37:25.941Z,9.23
2019-03-29T07:39:54.322Z,12.63
2019-03-29T07:42:22.660Z,11.83
2019-03-29T07:44:51.029Z,9.57
2019-03-29T07:47:19.424Z,12.73
2019-03-29T07:49:47.759Z,11.80
2019-03-29T07:52:16.176Z,15.87
2019-03-29T07:54:44.513Z,14.10
2019-03-29T07:57:12.888Z,14.93
2019-03-29T07:59:41.275Z,12.00
2019-03-29T08:02:09.634Z,9.30
2019-03-29T08:04:37.985Z,10.77
2019-03-29T08:07:06.647Z,11.87
2019-03-29T08:09:35.365Z,11.27
2019-03-29T08:12:03.857Z,20.33
2019-03-29T08:14:32.221Z,10.47
2019-03-29T08:17:00.574Z,12.20
2019-03-29T08:19:28.997Z,10.67
2019-03-29T08:21:58.695Z,13.73
2019-03-29T08:24:27.095Z,12.33
2019-03-29T08:26:57.685Z,13.20
2019-03-29T08:29:26.041Z,11.10
2019-03-29T08:31:55.841Z,8.60
2019-03-29T08:34:24.260Z,13.07
2019-03-29T08:36:52.672Z,11.97
2019-03-29T08:39:28.240Z,15.67
2019-03-29T08:42:00.311Z,13.17
2019-03-29T08:44:24.902Z,13.13
2019-03-29T08:46:53.599Z,14.97
2019-03-29T08:49:21.968Z,14.00
2019-03-29T08:51:50.770Z,12.83
2019-03-29T08:54:19.207Z,14.07
2019-03-29T08:56:47.684Z,15.53
2019-03-29T08:59:17.585Z,10.37
2019-03-29T09:01:46.368Z,16.50
2019-03-29T09:04:14.883Z,16.17
2019-03-29T09:06:53.377Z,11.70
2019-03-29T09:09:13.884Z,13.33
2019-03-29T09:11:42.345Z,15.80
2019-03-29T09:14:10.765Z,16.17
2019-03-29T09:16:39.119Z,14.37
2019-03-29T09:19:07.677Z,11.77
2019-03-29T09:21:36.306Z,11.00
2019-03-29T09:24:04.791Z,12.20
2019-03-29T09:26:33.298Z,13.97
2019-03-29T09:29:01.871Z,13.67
2019-03-29T09:31:30.447Z,16.37
2019-03-29T09:33:58.889Z,19.03
2019-03-29T09:36:27.234Z,12.57
2019-03-29T09:38:56.195Z,13.33
2019-03-29T09:41:24.994Z,14.87
2019-03-29T09:43:54.478Z,12.80
2019-03-29T09:46:25.788Z,15.93
2019-03-29T09:48:54.307Z,10.30
2019-03-29T09:51:22.688Z,13.10
2019-03-29T09:53:51.183Z,14.00
2019-03-29T09:56:19.501Z,11.50
2019-03-29T09:58:47.840Z,16.67
2019-03-29T10:01:16.337Z,13.60
2019-03-29T10:03:44.661Z,14.57
2019-03-29T10:06:15.280Z,20.93
2019-03-29T10:08:43.229Z,11.07
2019-03-29T10:11:11.552Z,14.50
2019-03-29T10:13:39.991Z,12.13
2019-03-29T10:16:08.342Z,14.20
2019-03-29T10:18:36.724Z,11.43
2019-03-29T10:21:05.341Z,14.37
2019-03-29T10:23:33.681Z,13.47
2019-03-29T10:26:02.009Z,13.90
2019-03-29T10:28:30.372Z,14.47
2019-03-29T10:30:58.724Z,15.10
2019-03-29T10:33:27.154Z,15.73
2019-03-29T10:35:55.481Z,13.23
2019-03-29T10:38:23.825Z,13.80
2019-03-29T10:40:52.242Z,12.17
2019-03-29T10:43:20.582Z,18.73
2019-03-29T10:45:49.994Z,22.60
2019-03-29T10:48:18.405Z,16.83
2019-03-29T10:50:46.755Z,13.70
2019-03-29T10:53:15.122Z,13.40
2019-03-29T10:55:43.538Z,16.20
2019-03-29T10:58:11.876Z,10.20
2019-03-29T11:00:40.790Z,8.87
2019-03-29T11:03:09.249Z,13.87
2019-03-29T11:05:37.823Z,13.03
2019-03-29T11:08:11.172Z,12.00
2019-03-29T11:10:41.990Z,16.50
2019-03-29T11:13:14.371Z,14.33
2019-03-29T11:15:40.557Z,16.17
2019-03-29T11:18:08.942Z,12.90
2019-03-29T11:20:37.458Z,11.33
2019-03-29T11:23:05.943Z,14.60
2019-03-29T11:25:34.307Z,14.17
2019-03-29T11:28:02.703Z,9.20
2019-03-29T11:30:41.603Z,13.60
2019-03-29T11:33:01.199Z,16.97
2019-03-29T11:35:29.559Z,12.40
2019-03-29T11:37:57.973Z,11.33
2019-03-29T11:40:26.415Z,14.47
2019-03-29T11:42:54.770Z,13.57
2019-03-29T11:45:23.360Z,10.53
2019-03-29T11:47:51.807Z,18.87
2019-03-29T11:50:20.345Z,12.20
2019-03-29T11:52:48.715Z,14.63
2019-03-29T11:55:17.139Z,13.30
2019-03-29T11:57:45.488Z,12.77
2019-03-29T12:00:16.037Z,11.87
2019-03-29T12:02:44.445Z,14.13
2019-03-29T12:05:12.888Z,18.40
2019-03-29T12:07:41.624Z,13.30
2019-03-29T12:10:10.260Z,12.53
2019-03-29T12:12:38.575Z,12.80
2019-03-29T12:15:08.377Z,10.73
2019-03-29T12:17:53.259Z,11.67
2019-03-29T12:20:21.604Z,13.53
2019-03-29T12:22:49.973Z,14.77
2019-03-29T12:25:18.348Z,15.67
2019-03-29T12:27:46.720Z,15.93
2019-03-29T12:30:30.550Z,13.73
2019-03-29T12:32:45.753Z,16.10
2019-03-29T12:35:14.296Z,15.40
2019-03-29T12:37:42.836Z,10.80
2019-03-29T12:40:11.620Z,11.47
2019-03-29T12:42:40.354Z,12.10
2019-03-29T12:45:10.718Z,13.63
2019-03-29T12:47:39.562Z,9.83
2019-03-29T12:50:08.279Z,14.40
2019-03-29T12:52:36.732Z,13.17
2019-03-29T12:55:05.244Z,15.50
2019-03-29T12:57:33.705Z,12.27
2019-03-29T13:00:02.061Z,11.17
2019-03-29T13:02:30.432Z,13.63
2019-03-29T13:04:58.907Z,17.50
2019-03-29T13:07:27.502Z,20.53
2019-03-29T13:09:55.981Z,15.23
2019-03-29T13:12:24.486Z,15.53
2019-03-29T13:14:52.997Z,16.83
2019-03-29T13:17:21.493Z,16.13
2019-03-29T13:19:53.155Z,16.93
2019-03-29T13:22:21.733Z,16.73
2019-03-29T13:24:50.233Z,14.23
2019-03-29T13:27:18.826Z,15.80
2019-03-29T13:29:47.213Z,18.33
2019-03-29T13:32:18.513Z,15.77
2019-03-29T13:34:47.175Z,16.50
2019-03-29T13:37:15.605Z,14.50
2019-03-29T13:39:44.042Z,13.77
2019-03-29T13:42:12.592Z,16.00
2019-03-29T13:44:41.217Z,15.60
2019-03-29T13:47:09.646Z,15.77
2019-03-29T13:49:38.066Z,14.10
2019-03-29T13:52:06.608Z,17.37
2019-03-29T13:54:35.270Z,14.53
2019-03-29T13:57:04.779Z,14.23
2019-03-29T13:59:33.277Z,12.60
2019-03-29T14:02:01.653Z,20.87
2019-03-29T14:04:30.014Z,15.03
2019-03-29T14:06:58.564Z,22.57
2019-03-29T14:09:29.382Z,15.13
2019-03-29T14:11:57.183Z,18.47
2019-03-29T14:14:37.572Z,19.30
2019-03-29T14:16:55.739Z,17.57
2019-03-29T14:19:25.828Z,17.23
2019-03-29T14:21:54.346Z,14.77
2019-03-29T14:24:22.718Z,15.40
2019-03-29T14:26:51.238Z,25.83
2019-03-29T14:29:19.637Z,20.47
2019-03-29T14:31:47.991Z,14.97
2019-03-29T14:34:16.420Z,17.93
2019-03-29T14:36:44.913Z,18.27
2019-03-29T14:39:13.316Z,12.53
2019-03-29T14:41:41.797Z,13.40
2019-03-29T14:44:10.482Z,13.80
2019-03-29T14:46:39.765Z,16.27
2019-03-29T14:49:08.115Z,20.93
2019-03-29T14:51:36.539Z,18.63
2019-03-29T14:54:04.907Z,23.97
2019-03-29T14:56:33.262Z,18.27
2019-03-29T14:59:01.689Z,15.20
2019-03-29T15:01:32.414Z,17.80
2019-03-29T15:04:00.726Z,19.23
2019-03-29T15:06:29.086Z,21.53
2019-03-29T15:08:57.830Z,15.13
2019-03-29T15:11:26.142Z,12.67
2019-03-29T15:13:54.510Z,13.37
2019-03-29T15:16:24.219Z,14.07
2019-03-29T15:18:52.612Z,16.43
2019-03-29T15:21:20.996Z,14.67
2019-03-29T15:23:50.917Z,17.80
2019-03-29T15:26:19.356Z,16.97
2019-03-29T15:28:47.688Z,21.87
2019-03-29T15:31:16.051Z,20.93
2019-03-29T15:33:44.446Z,19.63
2019-03-29T15:36:31.947Z,17.30
2019-03-29T15:39:00.391Z,30.90
2019-03-29T15:41:28.752Z,16.30
2019-03-29T15:43:57.058Z,22.00
2019-03-29T15:46:25.428Z,16.40
2019-03-29T15:48:53.778Z,16.93
2019-03-29T15:51:22.170Z,13.97
2019-03-29T15:53:50.495Z,17.20
2019-03-29T15:56:18.863Z,17.47
2019-03-29T15:58:47.248Z,20.00
2019-03-29T16:01:15.598Z,13.13
2019-03-29T16:03:43.944Z,15.20
2019-03-29T16:06:12.335Z,20.93
2019-03-29T16:08:40.677Z,16.97
2019-03-29T16:11:09.308Z,17.50
2019-03-29T16:13:38.013Z,23.03
2019-03-29T16:16:06.323Z,20.43
2019-03-29T16:18:34.663Z,23.23
2019-03-29T16:21:03.042Z,22.10
2019-03-29T16:23:31.386Z,17.80
2019-03-29T16:25:59.720Z,19.67
2019-03-29T16:28:28.119Z,19.43
2019-03-29T16:30:56.488Z,28.27
2019-03-29T16:33:24.844Z,16.27
2019-03-29T16:35:53.236Z,18.63
2019-03-29T16:38:21.596Z,17.60
2019-03-29T16:40:52.182Z,15.70
2019-03-29T16:43:20.563Z,16.57
2019-03-29T16:45:48.951Z,17.17
2019-03-29T16:48:17.343Z,17.70
2019-03-29T16:50:45.670Z,21.30
2019-03-29T16:53:14.042Z,20.73
2019-03-29T16:55:42.549Z,18.47
2019-03-29T16:58:10.891Z,21.83
2019-03-29T17:00:41.503Z,18.33
2019-03-29T17:03:09.839Z,18.10
2019-03-29T17:05:38.258Z,13.23
2019-03-29T17:08:06.598Z,18.87
2019-03-29T17:10:34.934Z,19.40
2019-03-29T17:13:03.451Z,18.30
2019-03-29T17:15:34.038Z,19.53
2019-03-29T17:18:02.382Z,17.20
2019-03-29T17:20:31.804Z,21.17
2019-03-29T17:23:00.128Z,22.23
2019-03-29T17:25:28.500Z,21.23
2019-03-29T17:27:56.911Z,17.93
2019-03-29T17:30:36.813Z,21.97
2019-03-29T17:33:05.151Z,24.00
2019-03-29T17:35:33.543Z,25.47
2019-03-29T17:38:01.894Z,23.80
2019-03-29T17:40:30.233Z,28.20
2019-03-29T17:42:58.620Z,21.57
2019-03-29T17:45:26.980Z,22.27
2019-03-29T17:47:55.387Z,17.40
2019-03-29T17:50:25.289Z,24.90
2019-03-29T17:52:53.880Z,25.90
2019-03-29T17:55:22.254Z,21.90
2019-03-29T17:57:50.668Z,21.47
2019-03-29T18:00:21.235Z,23.33
2019-03-29T18:02:49.584Z,19.43
2019-03-29T18:05:17.908Z,20.57
2019-03-29T18:07:46.307Z,20.43
2019-03-29T18:10:14.652Z,21.60
2019-03-29T18:12:42.999Z,24.50
2019-03-29T18:15:11.712Z,25.43
2019-03-29T18:17:40.062Z,20.67
2019-03-29T18:20:08.843Z,20.40
2019-03-29T18:22:37.242Z,19.13
2019-03-29T18:25:05.743Z,22.80
2019-03-29T18:27:34.064Z,21.87
2019-03-29T18:30:02.437Z,20.70
2019-03-29T18:32:32.107Z,25.47
2019-03-29T18:35:00.504Z,18.83
2019-03-29T18:37:28.908Z,20.47
2019-03-29T18:39:57.249Z,21.53
2019-03-29T18:42:25.663Z,20.47
2019-03-29T18:44:54.001Z,23.63
2019-03-29T18:47:22.312Z,23.10
2019-03-29T18:49:50.744Z,24.57
2019-03-29T18:52:20.085Z,26.50
2019-03-29T18:54:48.416Z,21.67
2019-03-29T18:57:16.855Z,18.77
2019-03-29T18:59:45.214Z,18.83
2019-03-29T19:02:13.529Z,24.93
2019-03-29T19:04:41.957Z,20.60
2019-03-29T19:07:10.284Z,20.47
2019-03-29T19:09:38.641Z,23.30
2019-03-29T19:12:07.044Z,22.80
2019-03-29T19:14:35.396Z,25.27
2019-03-29T19:17:03.805Z,19.10
2019-03-29T19:19:32.224Z,23.83
2019-03-29T19:22:00.577Z,19.97
2019-03-29T19:24:28.916Z,19.80
2019-03-29T19:26:58.479Z,19.47
2019-03-29T19:29:26.896Z,21.93
2019-03-29T19:31:56.235Z,18.27
2019-03-29T19:34:24.726Z,26.13
2019-03-29T19:36:53.074Z,28.97
2019-03-29T19:39:21.477Z,21.57
2019-03-29T19:41:49.835Z,25.17
2019-03-29T19:44:18.160Z,27.77
2019-03-29T19:46:46.573Z,23.40
2019-03-29T19:49:14.917Z,22.47
2019-03-29T19:51:43.270Z,23.57
2019-03-29T19:54:11.702Z,22.30
2019-03-29T19:56:40.038Z,24.30
2019-03-29T19:59:08.498Z,22.30
2019-03-29T20:01:36.979Z,22.57
2019-03-29T20:04:05.457Z,24.13
2019-03-29T20:06:33.794Z,21.33
2019-03-29T20:09:02.324Z,24.10
2019-03-29T20:11:30.680Z,20.17
2019-03-29T20:13:59.046Z,19.17
2019-03-29T20:16:27.465Z,26.17
2019-03-29T20:18:55.831Z,25.70
2019-03-29T20:21:24.175Z,22.70
2019-03-29T20:23:52.604Z,21.27
2019-03-29T20:26:20.970Z,22.60
2019-03-29T20:28:49.326Z,29.27
2019-03-29T20:31:17.715Z,22.93
2019-03-29T20:33:46.097Z,23.03
2019-03-29T20:36:22.345Z,26.63
2019-03-29T20:38:44.640Z,23.43
2019-03-29T20:41:13.006Z,26.53
2019-03-29T20:43:41.346Z,22.77
2019-03-29T20:46:09.784Z,23.27
2019-03-29T20:48:38.130Z,25.00
2019-03-29T20:51:06.494Z,23.53
2019-03-29T20:53:34.869Z,21.13
2019-03-29T20:56:06.375Z,24.97
2019-03-29T20:58:33.486Z,27.30
2019-03-29T21:01:01.865Z,25.60
2019-03-29T21:03:30.206Z,21.30
2019-03-29T21:05:58.717Z,21.77
2019-03-29T21:08:27.030Z,28.53
2019-03-29T21:10:56.495Z,22.27
2019-03-29T21:13:25.044Z,22.70
2019-03-29T21:15:53.380Z,23.60
2019-03-29T21:18:21.737Z,22.93
2019-03-29T21:20:50.116Z,23.70
2019-03-29T21:23:18.437Z,24.10
2019-03-29T21:25:46.856Z,26.93
2019-03-29T21:28:15.189Z,25.03
2019-03-29T21:30:45.707Z,26.30
2019-03-29T21:33:14.090Z,20.50
2019-03-29T21:35:42.418Z,27.00
2019-03-29T21:38:10.881Z,25.27
2019-03-29T21:40:39.291Z,29.67
2019-03-29T21:43:07.626Z,23.43
2019-03-29T21:45:35.982Z,27.10
2019-03-29T21:48:26.940Z,26.90
2019-03-29T21:50:34.786Z,24.60
2019-03-29T21:53:03.236Z,26.13
2019-03-29T21:55:31.648Z,21.27
2019-03-29T21:57:59.970Z,27.00
2019-03-29T22:00:28.343Z,27.77
2019-03-29T22:02:56.806Z,31.17
2019-03-29T22:05:25.164Z,27.87
2019-03-29T22:07:53.505Z,31.73
2019-03-29T22:10:21.854Z,29.63
2019-03-29T22:12:50.230Z,23.80
2019-03-29T22:15:18.606Z,29.23
2019-03-29T22:17:47.229Z,22.77
2019-03-29T22:20:15.801Z,26.27
2019-03-29T22:22:44.199Z,21.63
2019-03-29T22:25:12.587Z,25.73
2019-03-29T22:27:40.908Z,29.30
2019-03-29T22:30:10.169Z,24.33
2019-03-29T22:32:38.623Z,25.67
2019-03-29T22:35:07.235Z,29.90
2019-03-29T22:37:35.680Z,26.77
2019-03-29T22:40:04.483Z,25.93
2019-03-29T22:42:32.832Z,31.07
2019-03-29T22:45:01.225Z,29.07
2019-03-29T22:47:29.586Z,31.83
2019-03-29T22:50:00.721Z,22.27
2019-03-29T22:52:29.183Z,28.37
2019-03-29T22:54:57.540Z,28.40
2019-03-29T22:57:25.907Z,30.90
2019-03-29T22:59:54.326Z,26.43
2019-03-29T23:02:23.016Z,31.70
2019-03-29T23:04:51.372Z,28.90
2019-03-29T23:07:19.770Z,26.27
2019-03-29T23:09:48.124Z,24.30
2019-03-29T23:12:16.456Z,22.53
2019-03-29T23:14:44.837Z,25.17
2019-03-29T23:17:13.164Z,29.93
2019-03-29T23:19:41.506Z,26.57
2019-03-29T23:22:09.874Z,28.17
2019-03-29T23:24:38.231Z,31.13
2019-03-29T23:27:06.558Z,26.80
2019-03-29T23:29:34.924Z,28.60
2019-03-29T23:32:03.255Z,25.33
2019-03-29T23:34:31.647Z,33.10
2019-03-29T23:37:00.042Z,26.23
2019-03-29T23:39:28.448Z,31.07
2019-03-29T23:41:56.836Z,25.20
2019-03-29T23:44:25.187Z,28.63
2019-03-29T23:46:53.540Z,24.93
2019-03-29T23:49:21.913Z,33.07
2019-03-29T23:51:50.245Z,30.13
2019-03-29T23:54:18.659Z,23.73
2019-03-29T23:56:47.187Z,23.77
2019-03-29T23:59:15.675Z,24.47
